Time;durP1;ratioP1;P1;durP2;ratioP2;P2;SDS_P1;SDS_P2;PMS_P1;PMS_P2;Temp;Humidity;BMP_temperature;BMP_pressure;BME280_temperature;BME280_humidity;BME280_pressure;Samples;Min_cycle;Max_cycle;Signal;HPM_P1;HPM_P2
2023/03/05 00:01:51;;;;;;;23.13;13.93;;;2.30;99.90;;;;;;5029517;28;20685;-74
2023/03/05 00:04:17;;;;;;;18.80;13.70;;;2.20;99.90;;;;;;5033402;28;20195;-74
2023/03/05 00:06:43;;;;;;;13.43;9.87;;;2.30;99.90;;;;;;5027691;28;20187;-72
2023/03/05 00:09:08;;;;;;;16.53;12.23;;;2.40;99.90;;;;;;5037949;28;20291;-72
2023/03/05 00:11:35;;;;;;;24.13;15.57;;;2.40;99.90;;;;;;5031590;28;20208;-72
2023/03/05 00:14:03;;;;;;;24.13;15.33;;;2.40;99.90;;;;;;5032052;28;20176;-74
2023/03/05 00:16:29;;;;;;;24.07;17.20;;;2.30;99.90;;;;;;5032253;28;20181;-72
2023/03/05 00:18:56;;;;;;;18.20;10.93;;;2.20;99.90;;;;;;5027363;28;20228;-72
2023/03/05 00:21:28;;;;;;;19.47;12.90;;;2.10;99.90;;;;;;5027870;28;20617;-72
2023/03/05 00:23:55;;;;;;;25.03;16.50;;;2.00;99.90;;;;;;5030519;28;20194;-72
2023/03/05 00:26:24;;;;;;;24.00;15.70;;;2.00;99.90;;;;;;5023225;28;20217;-73
2023/03/05 00:28:51;;;;;;;26.73;15.70;;;2.00;99.90;;;;;;5024188;28;20283;-72
2023/03/05 00:31:21;;;;;;;24.97;17.57;;;1.90;99.90;;;;;;5026697;28;20177;-72
2023/03/05 00:33:55;;;;;;;26.20;15.13;;;1.90;99.90;;;;;;5033274;28;20377;-72
2023/03/05 00:36:21;;;;;;;24.97;14.63;;;1.80;99.90;;;;;;5034516;28;20191;-72
2023/03/05 00:38:46;;;;;;;22.97;11.77;;;1.80;99.90;;;;;;5031945;28;20215;-72
2023/03/05 00:41:12;;;;;;;25.20;17.23;;;1.80;99.90;;;;;;5026744;28;20201;-72
2023/03/05 00:43:38;;;;;;;24.17;17.30;;;1.90;99.90;;;;;;5031699;28;20639;-73
2023/03/05 00:46:03;;;;;;;22.17;13.60;;;1.70;99.90;;;;;;5035821;28;20168;-73
2023/03/05 00:48:29;;;;;;;19.30;12.23;;;1.70;99.90;;;;;;5031052;28;20200;-72
2023/03/05 00:50:55;;;;;;;29.40;18.17;;;1.70;99.90;;;;;;5031730;28;20172;-72
2023/03/05 00:53:20;;;;;;;30.33;18.73;;;1.70;99.90;;;;;;5028473;28;20196;-71
2023/03/05 00:55:46;;;;;;;24.77;11.03;;;1.70;99.90;;;;;;5031576;28;20210;-72
2023/03/05 00:58:12;;;;;;;26.03;16.43;;;1.70;99.90;;;;;;5036898;28;20207;-71
2023/03/05 01:00:37;;;;;;;30.80;19.03;;;1.70;99.90;;;;;;5030321;28;20177;-74
2023/03/05 01:03:03;;;;;;;25.77;18.27;;;1.70;99.90;;;;;;5036543;28;20215;-73
2023/03/05 01:05:29;;;;;;;22.70;16.00;;;1.70;99.90;;;;;;5029911;28;20172;-74
2023/03/05 01:07:56;;;;;;;29.17;17.97;;;1.70;99.90;;;;;;5029268;28;20177;-75
2023/03/05 01:10:26;;;;;;;25.97;14.70;;;1.70;99.90;;;;;;5038275;28;20653;-72
2023/03/05 01:12:56;;;;;;;29.13;18.87;;;1.80;99.90;;;;;;5036604;28;20191;-73
2023/03/05 01:15:22;;;;;;;26.97;18.87;;;1.80;99.90;;;;;;5035397;28;20182;-74
2023/03/05 01:17:48;;;;;;;27.67;19.07;;;1.80;99.90;;;;;;5036725;28;20588;-75
2023/03/05 01:20:16;;;;;;;28.53;18.30;;;1.70;99.90;;;;;;5032941;28;20240;-75
2023/03/05 01:22:42;;;;;;;32.53;18.37;;;1.70;99.90;;;;;;5028678;28;20232;-75
2023/03/05 01:25:08;;;;;;;29.60;18.80;;;1.80;99.90;;;;;;5032817;28;20219;-74
2023/03/05 01:27:34;;;;;;;29.17;18.90;;;1.80;99.90;;;;;;5026131;28;20211;-76
2023/03/05 01:29:59;;;;;;;26.63;16.23;;;1.70;99.90;;;;;;5033098;28;20188;-76
2023/03/05 01:32:25;;;;;;;28.83;18.90;;;1.70;99.90;;;;;;5028844;28;20816;-75
2023/03/05 01:34:51;;;;;;;26.07;16.70;;;1.70;99.90;;;;;;5028508;28;20215;-75
2023/03/05 01:37:16;;;;;;;28.03;18.73;;;1.70;99.90;;;;;;5033935;28;20660;-75
2023/03/05 01:39:42;;;;;;;30.93;19.93;;;1.80;99.90;;;;;;5027023;28;20212;-73
2023/03/05 01:42:08;;;;;;;29.17;18.00;;;1.90;99.90;;;;;;5032426;28;20214;-76
2023/03/05 01:44:34;;;;;;;30.63;19.33;;;1.90;99.90;;;;;;5037615;28;20263;-76
2023/03/05 01:47:00;;;;;;;29.70;19.77;;;1.80;99.90;;;;;;5034570;28;20186;-75
2023/03/05 01:49:38;;;;;;;25.50;14.70;;;1.80;99.90;;;;;;5028913;28;20231;-75
2023/03/05 01:52:07;;;;;;;26.73;15.23;;;1.80;99.90;;;;;;5036460;28;20176;-73
2023/03/05 01:54:58;;;;;;;24.83;17.23;;;1.80;99.90;;;;;;5029538;28;20287;-75
2023/03/05 01:57:30;;;;;;;17.27;12.03;;;1.80;99.90;;;;;;5031200;28;20189;-73
2023/03/05 02:00:01;;;;;;;35.00;19.57;;;1.90;99.90;;;;;;5025986;28;20208;-73
2023/03/05 02:02:27;;;;;;;31.10;16.53;;;1.90;99.90;;;;;;5029804;28;20245;-73
2023/03/05 02:05:01;;;;;;;31.03;19.80;;;1.90;99.90;;;;;;5030821;28;20192;-75
2023/03/05 02:07:28;;;;;;;28.03;16.97;;;1.90;99.90;;;;;;5035621;28;20172;-73
2023/03/05 02:09:54;;;;;;;28.73;18.07;;;1.90;99.90;;;;;;5030953;28;20675;-73
2023/03/05 02:12:19;;;;;;;23.43;16.07;;;2.00;99.90;;;;;;5030518;28;20200;-73
2023/03/05 02:14:49;;;;;;;27.50;17.97;;;2.00;99.90;;;;;;5025939;28;20192;-73
2023/03/05 02:17:15;;;;;;;26.93;15.23;;;2.00;99.90;;;;;;5032282;28;20184;-74
2023/03/05 02:19:53;;;;;;;26.43;16.67;;;1.90;99.90;;;;;;5027260;28;20222;-72
2023/03/05 02:22:20;;;;;;;27.60;17.57;;;2.00;99.90;;;;;;5029800;28;20240;-72
2023/03/05 02:24:46;;;;;;;29.47;18.60;;;2.00;99.90;;;;;;5033812;28;20170;-75
2023/03/05 02:27:13;;;;;;;28.03;17.93;;;2.00;99.90;;;;;;5025615;28;20279;-75
2023/03/05 02:29:42;;;;;;;25.17;17.53;;;2.10;99.90;;;;;;5028170;28;20197;-75
2023/03/05 02:32:08;;;;;;;30.37;18.70;;;2.10;99.90;;;;;;5029248;28;20240;-73
2023/03/05 02:34:34;;;;;;;28.83;18.07;;;2.10;99.90;;;;;;5029230;28;20615;-73
2023/03/05 02:37:01;;;;;;;25.57;14.30;;;2.10;99.90;;;;;;5030063;28;20203;-75
2023/03/05 02:39:27;;;;;;;27.67;18.63;;;2.10;99.90;;;;;;5030380;28;20204;-76
2023/03/05 02:41:52;;;;;;;26.97;17.53;;;2.10;99.90;;;;;;5031470;28;20208;-75
2023/03/05 02:44:18;;;;;;;21.83;11.00;;;2.20;99.90;;;;;;5030775;28;20597;-76
2023/03/05 02:46:44;;;;;;;26.33;16.27;;;2.20;99.90;;;;;;5030338;28;20257;-74
2023/03/05 02:49:09;;;;;;;22.23;13.97;;;2.20;99.90;;;;;;5026338;28;20200;-74
2023/03/05 02:51:35;;;;;;;24.53;14.10;;;2.20;99.90;;;;;;5029148;28;20184;-74
2023/03/05 02:54:00;;;;;;;28.43;18.90;;;2.10;99.90;;;;;;5029156;28;20304;-74
2023/03/05 02:56:26;;;;;;;18.83;10.97;;;2.20;99.90;;;;;;5026873;28;20190;-74
2023/03/05 02:58:51;;;;;;;29.80;16.47;;;2.20;99.90;;;;;;5028867;28;20288;-72
2023/03/05 03:01:17;;;;;;;33.67;19.33;;;2.30;99.90;;;;;;5028923;28;20615;-76
2023/03/05 03:03:42;;;;;;;29.37;17.37;;;2.20;99.90;;;;;;5027799;28;20181;-74
2023/03/05 03:06:08;;;;;;;26.50;17.03;;;2.20;99.90;;;;;;5025373;28;20176;-75
2023/03/05 03:08:34;;;;;;;22.73;13.60;;;2.20;99.90;;;;;;5024916;28;20189;-73
2023/03/05 03:11:04;;;;;;;27.03;15.80;;;2.20;99.90;;;;;;5025141;28;20183;-74
2023/03/05 03:13:30;;;;;;;29.23;18.53;;;2.30;99.90;;;;;;5030643;28;20202;-74
2023/03/05 03:16:04;;;;;;;25.90;17.23;;;2.30;99.90;;;;;;5024144;28;20196;-75
2023/03/05 03:18:30;;;;;;;31.03;18.60;;;2.30;99.90;;;;;;5030854;28;20207;-75
2023/03/05 03:20:55;;;;;;;24.97;15.60;;;2.20;99.90;;;;;;5024114;28;20256;-75
2023/03/05 03:23:21;;;;;;;21.03;12.43;;;2.20;99.90;;;;;;5023033;28;20227;-74
2023/03/05 03:25:47;;;;;;;27.80;17.30;;;2.20;99.90;;;;;;5023493;28;20622;-72
2023/03/05 03:28:12;;;;;;;27.97;18.60;;;2.30;99.90;;;;;;5027935;28;20363;-78
2023/03/05 03:30:38;;;;;;;27.63;18.37;;;2.20;99.90;;;;;;5026040;28;20645;-78
2023/03/05 03:33:03;;;;;;;22.10;14.93;;;2.20;99.90;;;;;;5020838;28;20180;-74
2023/03/05 03:35:29;;;;;;;29.83;17.10;;;2.20;99.90;;;;;;5034961;28;20191;-72
2023/03/05 03:37:54;;;;;;;27.80;16.70;;;2.30;99.90;;;;;;5032875;28;20643;-75
2023/03/05 03:40:20;;;;;;;27.57;17.20;;;2.20;99.90;;;;;;5025286;28;20192;-75
2023/03/05 03:42:46;;;;;;;28.23;17.87;;;2.30;99.90;;;;;;5025814;28;20270;-74
2023/03/05 03:45:12;;;;;;;27.47;16.37;;;2.20;99.90;;;;;;5031646;28;20173;-73
2023/03/05 03:47:37;;;;;;;27.67;15.03;;;2.30;99.90;;;;;;5030388;28;20195;-71
2023/03/05 03:50:03;;;;;;;21.90;11.67;;;2.30;99.90;;;;;;5030414;28;20296;-71
2023/03/05 03:52:29;;;;;;;27.80;18.37;;;2.40;99.90;;;;;;5026710;28;20439;-72
2023/03/05 03:55:00;;;;;;;19.77;9.87;;;2.40;99.90;;;;;;5033960;28;20263;-73
2023/03/05 03:57:26;;;;;;;23.73;13.33;;;2.30;99.90;;;;;;5026521;28;20184;-74
2023/03/05 03:59:52;;;;;;;20.90;13.27;;;2.30;99.90;;;;;;5028327;28;20676;-75
2023/03/05 04:02:17;;;;;;;19.60;11.17;;;2.30;99.90;;;;;;5020988;28;20283;-75
2023/03/05 04:04:43;;;;;;;24.57;15.07;;;2.30;99.90;;;;;;5024906;28;20520;-77
2023/03/05 04:07:09;;;;;;;21.17;10.73;;;2.30;99.90;;;;;;5018989;28;20173;-74
2023/03/05 04:09:34;;;;;;;27.90;17.13;;;2.20;99.90;;;;;;5025163;28;20550;-74
2023/03/05 04:12:00;;;;;;;29.63;17.37;;;2.30;99.90;;;;;;5025929;28;20605;-74
2023/03/05 04:14:26;;;;;;;22.63;11.77;;;2.30;99.90;;;;;;5028781;28;20177;-73
2023/03/05 04:16:51;;;;;;;29.63;17.30;;;2.30;99.90;;;;;;5021095;28;20192;-77
2023/03/05 04:19:17;;;;;;;30.53;19.53;;;2.30;99.90;;;;;;5026213;28;20236;-74
2023/03/05 04:21:42;;;;;;;23.37;15.03;;;2.30;99.90;;;;;;5028235;28;20225;-74
2023/03/05 04:24:08;;;;;;;28.03;17.77;;;2.30;99.90;;;;;;5022768;28;20256;-74
2023/03/05 04:26:34;;;;;;;16.60;9.80;;;2.30;99.90;;;;;;5022034;28;20223;-77
2023/03/05 04:28:59;;;;;;;30.17;17.13;;;2.30;99.90;;;;;;5023219;28;20259;-74
2023/03/05 04:31:25;;;;;;;29.57;17.67;;;2.30;99.90;;;;;;5024523;28;20199;-74
2023/03/05 04:33:50;;;;;;;31.73;18.53;;;2.30;99.90;;;;;;5029465;28;20261;-76
2023/03/05 04:36:16;;;;;;;25.47;13.93;;;2.30;99.90;;;;;;5028876;28;20295;-76
2023/03/05 04:38:42;;;;;;;27.47;17.47;;;2.40;99.90;;;;;;5027617;28;20235;-76
2023/03/05 04:41:07;;;;;;;29.40;16.70;;;2.40;99.90;;;;;;5030716;28;20210;-77
2023/03/05 04:43:33;;;;;;;27.00;16.43;;;2.40;99.90;;;;;;5030555;28;20699;-75
2023/03/05 04:45:58;;;;;;;27.50;17.80;;;2.20;99.90;;;;;;5041855;28;20279;-75
2023/03/05 04:48:24;;;;;;;23.13;16.63;;;2.30;99.90;;;;;;5027199;28;20192;-74
2023/03/05 04:50:50;;;;;;;27.57;17.20;;;2.30;99.90;;;;;;5026817;28;20192;-79
2023/03/05 04:53:15;;;;;;;19.83;12.50;;;2.20;99.90;;;;;;5026719;28;20192;-74
2023/03/05 04:55:42;;;;;;;21.13;13.63;;;2.30;99.90;;;;;;5029075;28;20181;-74
2023/03/05 04:58:08;;;;;;;25.20;14.00;;;2.30;99.90;;;;;;5034708;28;20233;-73
2023/03/05 05:00:34;;;;;;;31.07;19.40;;;2.30;99.90;;;;;;5034612;28;20176;-73
2023/03/05 05:03:00;;;;;;;25.47;14.93;;;2.30;99.90;;;;;;5038761;28;20196;-73
2023/03/05 05:05:27;;;;;;;24.77;15.80;;;2.40;99.90;;;;;;5037030;28;20172;-77
2023/03/05 05:07:55;;;;;;;25.20;14.00;;;2.40;99.90;;;;;;5029769;28;20307;-74
2023/03/05 05:10:20;;;;;;;28.70;16.77;;;2.30;99.90;;;;;;5020261;28;20259;-74
2023/03/05 05:12:46;;;;;;;26.23;16.53;;;2.30;99.90;;;;;;5032726;28;20312;-74
2023/03/05 05:15:12;;;;;;;30.13;18.87;;;2.30;99.90;;;;;;5034644;28;20188;-74
2023/03/05 05:17:38;;;;;;;34.20;21.33;;;2.40;99.90;;;;;;5029502;28;20643;-74
2023/03/05 05:20:05;;;;;;;32.60;18.33;;;2.30;99.90;;;;;;5030963;28;20236;-74
2023/03/05 05:22:32;;;;;;;32.37;15.40;;;2.30;99.90;;;;;;5029244;28;20565;-74
2023/03/05 05:24:57;;;;;;;25.50;15.57;;;2.20;99.90;;;;;;5032124;28;20189;-73
2023/03/05 05:27:23;;;;;;;30.53;20.03;;;2.20;99.90;;;;;;5036020;28;20310;-73
2023/03/05 05:29:49;;;;;;;32.57;17.80;;;2.20;99.90;;;;;;5031373;28;20267;-73
2023/03/05 05:32:16;;;;;;;29.13;17.13;;;2.20;99.90;;;;;;5026306;28;20272;-73
2023/03/05 05:34:41;;;;;;;29.30;18.27;;;2.20;99.90;;;;;;5029679;28;20340;-78
2023/03/05 05:37:07;;;;;;;36.17;20.03;;;2.20;99.90;;;;;;5035644;28;20267;-74
2023/03/05 05:39:34;;;;;;;26.80;16.87;;;2.10;99.90;;;;;;5027628;28;20212;-75
2023/03/05 05:41:59;;;;;;;24.63;15.53;;;2.10;99.90;;;;;;5029136;28;20735;-73
2023/03/05 05:44:25;;;;;;;25.53;15.37;;;2.10;99.90;;;;;;5030045;28;20267;-73
2023/03/05 05:46:51;;;;;;;28.77;17.50;;;2.20;99.90;;;;;;5031722;28;20179;-74
2023/03/05 05:49:16;;;;;;;29.23;17.63;;;2.20;99.90;;;;;;5026813;28;20200;-74
2023/03/05 05:51:42;;;;;;;25.70;16.53;;;2.20;99.90;;;;;;5028762;28;20752;-73
2023/03/05 05:54:11;;;;;;;32.07;18.83;;;2.10;99.90;;;;;;5032303;28;20187;-74
2023/03/05 05:56:37;;;;;;;26.93;17.90;;;2.20;99.90;;;;;;5026691;28;20181;-73
2023/03/05 05:59:02;;;;;;;25.83;17.10;;;2.10;99.90;;;;;;5026451;28;20200;-74
2023/03/05 06:01:30;;;;;;;30.80;17.10;;;2.20;99.90;;;;;;5031814;28;20235;-74
2023/03/05 06:03:57;;;;;;;28.57;17.07;;;2.20;99.90;;;;;;5029054;28;20209;-75
2023/03/05 06:06:24;;;;;;;29.47;17.87;;;2.20;99.90;;;;;;5027830;28;20180;-73
2023/03/05 06:08:50;;;;;;;30.30;16.90;;;2.30;99.90;;;;;;5029033;28;20209;-73
2023/03/05 06:11:17;;;;;;;29.73;18.70;;;2.30;99.90;;;;;;5029566;28;20540;-73
2023/03/05 06:13:42;;;;;;;28.63;18.47;;;2.30;99.90;;;;;;5028622;28;20179;-74
2023/03/05 06:16:13;;;;;;;29.07;18.17;;;2.20;99.90;;;;;;5024884;28;20185;-74
2023/03/05 06:18:39;;;;;;;27.60;17.93;;;2.30;99.90;;;;;;5024745;28;20221;-73
2023/03/05 06:21:07;;;;;;;26.60;17.47;;;2.40;99.90;;;;;;5028785;28;20544;-73
2023/03/05 06:23:33;;;;;;;33.50;19.13;;;2.30;99.90;;;;;;5026927;28;20188;-73
2023/03/05 06:26:04;;;;;;;32.53;18.20;;;2.40;99.90;;;;;;5029514;28;20184;-73
2023/03/05 06:28:31;;;;;;;29.40;18.07;;;2.40;99.90;;;;;;5026533;28;20205;-74
2023/03/05 06:31:11;;;;;;;27.97;18.00;;;2.50;99.90;;;;;;5028937;28;20196;-73
2023/03/05 06:33:38;;;;;;;25.13;16.40;;;2.50;99.90;;;;;;5026343;28;20192;-73
2023/03/05 06:36:10;;;;;;;26.77;17.77;;;2.40;99.90;;;;;;5027808;28;20177;-73
2023/03/05 06:38:36;;;;;;;38.27;19.23;;;2.50;99.90;;;;;;5024023;28;20255;-73
2023/03/05 06:41:08;;;;;;;30.30;18.83;;;2.50;99.90;;;;;;5024222;28;20189;-73
2023/03/05 06:43:36;;;;;;;30.90;20.67;;;2.50;99.90;;;;;;5027384;28;20181;-73
2023/03/05 06:46:11;;;;;;;25.37;17.20;;;2.50;99.90;;;;;;5026601;28;20192;-73
2023/03/05 06:48:37;;;;;;;31.40;16.90;;;2.60;99.90;;;;;;5031605;28;20330;-74
2023/03/05 06:51:03;;;;;;;29.30;18.33;;;2.50;99.90;;;;;;5025544;28;20698;-75
2023/03/05 06:53:29;;;;;;;29.37;18.17;;;2.60;99.90;;;;;;5025557;28;20239;-76
2023/03/05 06:55:55;;;;;;;30.47;17.20;;;2.70;99.90;;;;;;5028848;28;20213;-73
2023/03/05 06:58:21;;;;;;;28.13;17.43;;;2.70;99.90;;;;;;5027527;28;20213;-73
2023/03/05 07:00:46;;;;;;;33.10;16.67;;;2.80;99.90;;;;;;5024183;28;20177;-73
2023/03/05 07:03:12;;;;;;;24.57;16.17;;;2.90;99.90;;;;;;5028821;28;20216;-74
2023/03/05 07:05:39;;;;;;;24.40;16.37;;;2.90;99.90;;;;;;5027766;28;20545;-74
2023/03/05 07:08:05;;;;;;;28.90;17.97;;;2.90;99.90;;;;;;5028647;28;20215;-74
2023/03/05 07:10:31;;;;;;;33.80;17.67;;;3.00;99.90;;;;;;5022218;28;20590;-73
2023/03/05 07:12:57;;;;;;;23.30;13.80;;;3.10;99.90;;;;;;5037575;28;20180;-73
2023/03/05 07:15:23;;;;;;;22.57;13.50;;;3.10;99.90;;;;;;5028170;28;20187;-75
2023/03/05 07:17:48;;;;;;;27.23;16.30;;;3.20;99.90;;;;;;5026654;28;20177;-73
2023/03/05 07:20:14;;;;;;;22.47;15.43;;;3.20;99.90;;;;;;5028469;28;20235;-75
2023/03/05 07:22:40;;;;;;;24.90;15.67;;;3.20;99.90;;;;;;5027555;28;20289;-74
2023/03/05 07:25:07;;;;;;;28.97;18.47;;;3.30;99.90;;;;;;5024994;28;20707;-75
2023/03/05 07:27:37;;;;;;;26.03;17.37;;;3.30;99.90;;;;;;5024250;28;20212;-75
2023/03/05 07:30:03;;;;;;;26.93;16.50;;;3.50;99.90;;;;;;5030123;28;20212;-76
2023/03/05 07:32:29;;;;;;;20.87;14.57;;;3.50;99.90;;;;;;5030792;28;20180;-75
2023/03/05 07:34:54;;;;;;;23.30;15.77;;;3.70;99.90;;;;;;5027409;28;20188;-74
2023/03/05 07:37:20;;;;;;;13.90;9.00;;;3.70;99.90;;;;;;5028008;28;20192;-74
2023/03/05 07:39:45;;;;;;;31.00;16.13;;;3.70;99.90;;;;;;5030783;28;20538;-75
2023/03/05 07:42:11;;;;;;;28.33;17.30;;;3.80;99.90;;;;;;5028590;28;20208;-74
2023/03/05 07:44:37;;;;;;;22.63;15.07;;;3.80;99.90;;;;;;5031029;28;20636;-75
2023/03/05 07:47:04;;;;;;;26.67;16.43;;;3.70;99.90;;;;;;5036978;28;20670;-75
2023/03/05 07:49:29;;;;;;;22.97;16.47;;;3.70;99.90;;;;;;5032887;28;20215;-75
2023/03/05 07:51:55;;;;;;;28.97;14.73;;;3.80;99.90;;;;;;5033211;28;20602;-76
2023/03/05 07:54:21;;;;;;;27.37;17.40;;;3.80;99.90;;;;;;5030648;28;20192;-76
2023/03/05 07:56:47;;;;;;;24.30;14.93;;;3.90;99.90;;;;;;5025749;28;20185;-75
2023/03/05 07:59:13;;;;;;;20.63;13.77;;;3.90;99.90;;;;;;5031272;28;20282;-77
2023/03/05 08:01:39;;;;;;;23.20;15.68;;;4.00;99.90;;;;;;5024283;28;20300;-74
2023/03/05 08:04:06;;;;;;;26.73;16.83;;;4.00;99.90;;;;;;5026015;28;20181;-72
2023/03/05 08:06:31;;;;;;;25.93;15.90;;;4.10;99.90;;;;;;5034589;28;20831;-74
2023/03/05 08:08:58;;;;;;;24.73;16.25;;;4.10;99.90;;;;;;5034291;28;20295;-72
2023/03/05 08:11:23;;;;;;;26.67;13.98;;;4.10;99.90;;;;;;5026022;28;20204;-77
2023/03/05 08:13:49;;;;;;;23.80;15.32;;;4.10;99.90;;;;;;5026907;28;20563;-76
2023/03/05 08:16:18;;;;;;;23.00;15.63;;;4.30;99.90;;;;;;5031261;28;20185;-75
2023/03/05 08:18:44;;;;;;;22.40;15.00;;;4.30;99.90;;;;;;5035204;28;20212;-76
2023/03/05 08:21:32;;;;;;;22.80;14.85;;;4.40;99.90;;;;;;5031196;28;20185;-76
2023/03/05 08:23:58;;;;;;;24.45;14.88;;;4.40;99.90;;;;;;5032036;28;20635;-74
2023/03/05 08:26:27;;;;;;;21.80;14.00;;;4.40;99.90;;;;;;5031739;28;20199;-75
2023/03/05 08:28:53;;;;;;;23.77;14.40;;;4.50;99.90;;;;;;5034869;28;20200;-77
2023/03/05 08:31:20;;;;;;;20.88;13.63;;;4.60;99.90;;;;;;5035329;28;20196;-74
2023/03/05 08:33:47;;;;;;;22.60;14.30;;;4.60;99.90;;;;;;5030264;28;20667;-74
2023/03/05 08:36:13;;;;;;;22.98;15.60;;;4.60;99.90;;;;;;5035175;28;20234;-77
2023/03/05 08:38:39;;;;;;;24.55;15.63;;;4.40;99.90;;;;;;5037732;28;20196;-76
2023/03/05 08:41:04;;;;;;;24.20;15.57;;;4.30;99.90;;;;;;5034187;28;20176;-77
2023/03/05 08:43:30;;;;;;;22.63;14.15;;;4.40;99.90;;;;;;5031877;28;20196;-75
2023/03/05 08:45:56;;;;;;;11.50;7.60;;;4.40;99.90;;;;;;5027271;28;20192;-75
2023/03/05 08:48:22;;;;;;;17.17;11.30;;;4.50;99.90;;;;;;5037950;28;20212;-75
2023/03/05 08:50:48;;;;;;;22.02;14.60;;;4.60;99.90;;;;;;5037636;28;20184;-75
2023/03/05 08:53:14;;;;;;;19.33;12.32;;;4.50;99.90;;;;;;5034852;28;20315;-75
2023/03/05 08:55:40;;;;;;;17.08;11.02;;;4.40;99.90;;;;;;5039363;28;20266;-75
2023/03/05 08:58:05;;;;;;;20.98;13.43;;;4.50;99.90;;;;;;5036918;28;20198;-75
2023/03/05 09:00:31;;;;;;;23.85;14.30;;;4.60;99.90;;;;;;5033374;28;20177;-75
2023/03/05 09:02:56;;;;;;;22.52;12.70;;;4.50;99.90;;;;;;5032184;28;20291;-75
2023/03/05 09:05:22;;;;;;;22.83;14.43;;;4.50;99.90;;;;;;5034199;28;20184;-75
2023/03/05 09:07:47;;;;;;;21.98;12.73;;;4.70;99.90;;;;;;5035492;28;20576;-75
2023/03/05 09:10:13;;;;;;;26.85;14.70;;;4.90;99.90;;;;;;5030237;28;20200;-75
2023/03/05 09:12:42;;;;;;;23.42;14.57;;;5.10;99.90;;;;;;5031845;28;20175;-75
2023/03/05 09:15:09;;;;;;;20.05;13.55;;;5.20;99.90;;;;;;5031028;28;20505;-75
2023/03/05 09:17:36;;;;;;;19.70;13.18;;;5.30;99.90;;;;;;5032589;28;20228;-75
2023/03/05 09:20:03;;;;;;;20.05;12.48;;;5.40;99.90;;;;;;5028239;28;20301;-75
2023/03/05 09:22:29;;;;;;;13.95;9.48;;;5.60;99.90;;;;;;5032379;28;20213;-75
2023/03/05 09:24:54;;;;;;;19.67;11.00;;;5.60;99.90;;;;;;5029339;28;20181;-75
2023/03/05 09:27:20;;;;;;;25.38;16.17;;;5.60;99.90;;;;;;5036666;28;20571;-75
2023/03/05 09:29:47;;;;;;;19.15;12.82;;;5.60;99.90;;;;;;5037805;28;20470;-75
2023/03/05 09:32:13;;;;;;;25.17;15.57;;;5.70;99.90;;;;;;5037016;28;20251;-76
2023/03/05 09:34:38;;;;;;;22.75;16.10;;;5.80;99.90;;;;;;5036201;28;20657;-75
2023/03/05 09:37:04;;;;;;;25.30;16.52;;;5.90;99.90;;;;;;5030196;28;20614;-75
2023/03/05 09:39:30;;;;;;;21.30;12.38;;;6.00;99.90;;;;;;5034993;28;20228;-76
2023/03/05 09:42:07;;;;;;;24.95;16.55;;;6.20;99.90;;;;;;5029075;28;20632;-75
2023/03/05 09:44:49;;;;;;;24.77;15.10;;;6.20;99.90;;;;;;5029071;28;20205;-76
2023/03/05 09:47:45;;;;;;;20.73;11.10;;;6.10;99.90;;;;;;5036292;28;20180;-75
2023/03/05 09:50:32;;;;;;;20.08;12.68;;;6.40;99.90;;;;;;5034757;28;20667;-75
2023/03/05 09:53:22;;;;;;;22.67;15.98;;;6.60;99.90;;;;;;5029738;28;20192;-76
2023/03/05 09:55:57;;;;;;;23.85;14.88;;;6.70;99.90;;;;;;5023461;28;20731;-76
2023/03/05 09:58:36;;;;;;;25.48;15.68;;;6.80;99.90;;;;;;5032933;28;20294;-76
2023/03/05 10:01:14;;;;;;;25.98;16.90;;;6.80;99.90;;;;;;5030654;28;20567;-75
2023/03/05 10:03:55;;;;;;;22.13;14.77;;;6.80;99.90;;;;;;5031399;28;20663;-76
2023/03/05 10:06:29;;;;;;;27.85;13.02;;;6.80;99.90;;;;;;5034979;28;20547;-76
2023/03/05 10:08:56;;;;;;;21.40;13.27;;;6.80;99.90;;;;;;5033089;28;20196;-76
2023/03/05 10:11:49;;;;;;;23.08;14.90;;;6.80;99.90;;;;;;5038972;28;20181;-76
2023/03/05 10:14:28;;;;;;;20.75;15.07;;;6.50;99.90;;;;;;5027561;28;20172;-76
2023/03/05 10:17:31;;;;;;;9.10;5.85;;;6.40;99.90;;;;;;5023300;28;20556;-76
2023/03/05 10:19:57;;;;;;;18.55;13.20;;;6.30;99.90;;;;;;5026037;28;20269;-76
2023/03/05 10:22:29;;;;;;;19.83;12.65;;;6.20;99.90;;;;;;5029577;28;20208;-76
2023/03/05 10:25:22;;;;;;;19.08;14.13;;;6.10;99.90;;;;;;5030274;28;20176;-76
2023/03/05 10:27:51;;;;;;;18.52;11.68;;;6.00;99.90;;;;;;5033848;28;20549;-76
2023/03/05 10:30:19;;;;;;;22.08;11.95;;;5.70;99.90;;;;;;5032194;28;20282;-75
2023/03/05 10:33:11;;;;;;;13.25;9.50;;;5.60;99.90;;;;;;5032072;28;20181;-75
2023/03/05 10:36:01;;;;;;;19.98;12.95;;;5.50;99.90;;;;;;5028505;28;20631;-75
2023/03/05 10:38:37;;;;;;;23.63;13.63;;;5.30;99.90;;;;;;5030220;28;20199;-75
2023/03/05 10:41:20;;;;;;;25.98;13.65;;;5.20;99.90;;;;;;5029229;28;20180;-75
2023/03/05 10:43:58;;;;;;;21.88;14.40;;;5.20;99.90;;;;;;5032919;28;20275;-76
2023/03/05 10:46:33;;;;;;;22.25;14.40;;;5.10;99.90;;;;;;5028922;28;20194;-75
2023/03/05 10:49:13;;;;;;;26.27;13.35;;;5.10;99.90;;;;;;5029474;28;20303;-75
2023/03/05 10:51:49;;;;;;;20.90;13.73;;;5.00;99.90;;;;;;5030654;28;20205;-76
2023/03/05 10:54:29;;;;;;;19.52;12.75;;;5.10;99.90;;;;;;5032442;28;20180;-76
2023/03/05 10:57:17;;;;;;;19.95;12.82;;;5.10;99.90;;;;;;5031449;28;20192;-76
2023/03/05 10:59:48;;;;;;;21.33;12.38;;;5.20;99.90;;;;;;5025878;28;20234;-76
2023/03/05 11:02:13;;;;;;;14.38;9.52;;;5.30;99.90;;;;;;5031223;28;20208;-76
2023/03/05 11:04:39;;;;;;;11.52;7.40;;;5.50;99.90;;;;;;5029256;28;20185;-75
2023/03/05 11:07:28;;;;;;;10.82;7.53;;;5.60;99.90;;;;;;5029099;28;20176;-76
2023/03/05 11:10:03;;;;;;;18.70;10.88;;;5.50;99.90;;;;;;5034482;28;20192;-75
2023/03/05 11:12:37;;;;;;;15.65;11.30;;;5.40;99.90;;;;;;5029745;28;20194;-76
2023/03/05 11:15:08;;;;;;;18.75;11.05;;;5.20;99.90;;;;;;5032635;28;20192;-76
2023/03/05 11:17:42;;;;;;;18.48;12.52;;;5.10;99.90;;;;;;5024454;28;20199;-76
2023/03/05 11:20:25;;;;;;;18.55;11.05;;;4.80;99.90;;;;;;5026179;28;20707;-76
2023/03/05 11:23:16;;;;;;;18.00;12.00;;;4.60;99.90;;;;;;5030657;28;20204;-76
2023/03/05 11:26:01;;;;;;;19.33;13.38;;;4.60;99.90;;;;;;5035870;28;20170;-76
2023/03/05 11:28:36;;;;;;;22.58;11.60;;;4.60;99.90;;;;;;5027339;28;20203;-76
2023/03/05 11:31:14;;;;;;;16.67;12.13;;;4.60;99.90;;;;;;5024886;28;20208;-76
2023/03/05 11:34:10;;;;;;;20.70;13.38;;;4.50;99.90;;;;;;5030235;28;20188;-76
2023/03/05 11:36:38;;;;;;;18.80;11.88;;;4.50;99.90;;;;;;5034539;28;20262;-76
2023/03/05 11:39:06;;;;;;;19.00;12.10;;;4.40;99.90;;;;;;5031153;28;20224;-76
2023/03/05 11:41:49;;;;;;;18.55;12.18;;;4.30;99.90;;;;;;5022788;28;20753;-76
2023/03/05 11:44:27;;;;;;;17.00;11.77;;;4.40;99.90;;;;;;5027463;28;20239;-76
2023/03/05 11:47:15;;;;;;;18.75;11.57;;;4.40;99.90;;;;;;5032546;28;20191;-76
2023/03/05 11:49:45;;;;;;;17.13;10.85;;;4.50;99.90;;;;;;5022800;28;20205;-76
2023/03/05 11:52:20;;;;;;;20.48;12.70;;;4.50;99.90;;;;;;5026083;28;20234;-76
2023/03/05 11:55:02;;;;;;;16.25;11.00;;;4.50;99.90;;;;;;5026989;28;20179;-76
2023/03/05 11:57:34;;;;;;;18.38;11.30;;;4.60;99.90;;;;;;5023663;28;20198;-76
2023/03/05 12:00:07;;;;;;;17.52;9.68;;;4.60;99.90;;;;;;5031315;28;20239;-76
2023/03/05 12:02:36;;;;;;;16.80;11.05;;;4.50;99.90;;;;;;5027137;28;20211;-76
2023/03/05 12:05:03;;;;;;;14.30;9.05;;;4.60;99.90;;;;;;5030367;28;20184;-76
2023/03/05 12:07:38;;;;;;;18.00;10.00;;;4.70;99.90;;;;;;5030993;28;20264;-76
2023/03/05 12:10:05;;;;;;;15.23;8.90;;;4.60;99.90;;;;;;5026580;28;20258;-76
2023/03/05 12:13:10;;;;;;;18.30;10.65;;;4.60;99.90;;;;;;5029467;28;20231;-75
2023/03/05 12:15:58;;;;;;;17.15;10.43;;;4.60;99.90;;;;;;5029211;28;20180;-76
2023/03/05 12:18:48;;;;;;;16.60;9.77;;;4.60;99.90;;;;;;5030247;28;20253;-76
2023/03/05 12:21:35;;;;;;;13.45;8.73;;;4.50;99.90;;;;;;5028717;28;20541;-76
2023/03/05 12:24:22;;;;;;;12.02;8.15;;;4.50;99.90;;;;;;5027296;28;20175;-75
2023/03/05 12:27:01;;;;;;;13.15;9.63;;;4.60;99.90;;;;;;5025813;28;20176;-75
2023/03/05 12:29:39;;;;;;;14.10;8.77;;;4.60;99.90;;;;;;5028327;28;20568;-75
2023/03/05 12:32:24;;;;;;;12.45;8.93;;;4.50;99.90;;;;;;5031701;28;20642;-75
2023/03/05 12:34:56;;;;;;;14.57;9.63;;;4.40;99.90;;;;;;5024827;28;20598;-75
2023/03/05 12:37:22;;;;;;;12.38;8.50;;;4.50;99.90;;;;;;5030141;28;20180;-76
2023/03/05 12:40:11;;;;;;;11.02;5.28;;;4.20;99.90;;;;;;5029529;28;20197;-76
2023/03/05 12:42:36;;;;;;;11.13;7.90;;;4.30;99.90;;;;;;5028557;28;20208;-76
2023/03/05 12:45:11;;;;;;;12.93;8.95;;;4.40;99.90;;;;;;5023973;28;20234;-76
2023/03/05 12:48:10;;;;;;;13.43;8.77;;;4.50;99.90;;;;;;5027502;28;20221;-75
2023/03/05 12:50:36;;;;;;;11.70;8.25;;;4.50;99.90;;;;;;5034589;28;20224;-75